Time;durP1;ratioP1;P1;durP2;ratioP2;P2;SDS_P1;SDS_P2;PMS_P1;PMS_P2;Temp;Humidity;BMP_temperature;BMP_pressure;BME280_temperature;BME280_humidity;BME280_pressure;Samples;Min_cycle;Max_cycle;Signal;HPM_P1;HPM_P2
2021/08/06 00:01:25;;;;;;;10.13;7.30;;;;;;;19.87;73.57;100246.09;4824135;29;20803;-62
2021/08/06 00:03:54;;;;;;;9.88;7.22;;;;;;;19.95;73.71;100242.34;4830381;29;20065;-62
2021/08/06 00:06:38;;;;;;;10.82;6.80;;;;;;;19.97;73.76;100234.94;4817032;29;20065;-62
2021/08/06 00:09:04;;;;;;;9.05;6.13;;;;;;;19.94;73.38;100238.06;4813293;29;20096;-62
2021/08/06 00:11:31;;;;;;;10.98;7.10;;;;;;;19.87;74.00;100243.44;4849961;29;20140;-62
2021/08/06 00:13:59;;;;;;;12.38;7.47;;;;;;;20.08;73.34;100238.72;4827462;29;20140;-61
2021/08/06 00:16:26;;;;;;;12.83;8.03;;;;;;;19.79;74.56;100240.28;4827956;29;20093;-62
2021/08/06 00:18:53;;;;;;;11.02;7.20;;;;;;;19.84;74.55;100235.13;4828982;29;20793;-62
2021/08/06 00:21:19;;;;;;;11.15;6.88;;;;;;;19.84;75.03;100235.91;4833698;29;20145;-61
2021/08/06 00:23:46;;;;;;;11.10;6.25;;;;;;;19.88;74.30;100228.31;4828882;29;20559;-62
2021/08/06 00:26:13;;;;;;;10.77;5.97;;;;;;;19.85;74.33;100223.41;4835062;29;20145;-62
2021/08/06 00:28:40;;;;;;;12.10;6.82;;;;;;;19.82;74.96;100222.03;4831123;29;20107;-62
2021/08/06 00:31:07;;;;;;;15.40;6.65;;;;;;;19.79;75.10;100217.13;4822621;29;20555;-62
2021/08/06 00:33:34;;;;;;;12.05;6.22;;;;;;;19.81;75.05;100208.94;4832199;29;20100;-62
2021/08/06 00:36:00;;;;;;;11.30;6.25;;;;;;;19.77;75.29;100210.41;4828466;29;20152;-62
2021/08/06 00:38:27;;;;;;;11.50;6.20;;;;;;;19.79;75.60;100206.50;4833223;29;20149;-62
2021/08/06 00:40:53;;;;;;;9.85;6.95;;;;;;;19.77;75.67;100202.44;4828100;29;20058;-62
2021/08/06 00:43:20;;;;;;;9.73;6.57;;;;;;;19.68;76.27;100196.56;4829632;29;20089;-62
2021/08/06 00:45:47;;;;;;;7.60;5.28;;;;;;;19.69;76.04;100199.00;4825268;29;20467;-60
2021/08/06 00:48:14;;;;;;;9.85;5.90;;;;;;;19.70;76.59;100205.16;4839388;29;20056;-62
2021/08/06 00:50:41;;;;;;;9.73;6.15;;;;;;;19.69;76.48;100203.50;4852260;29;20153;-62
2021/08/06 00:53:07;;;;;;;8.88;5.68;;;;;;;19.66;76.62;100204.78;4842380;29;20093;-62
2021/08/06 00:55:35;;;;;;;10.93;6.50;;;;;;;19.70;76.70;100200.63;4819690;29;20076;-62
2021/08/06 00:58:01;;;;;;;10.38;6.03;;;;;;;19.71;76.66;100194.28;4824900;29;20353;-62
2021/08/06 01:00:28;;;;;;;9.77;5.97;;;;;;;19.72;76.47;100192.47;4834869;29;20155;-62
2021/08/06 01:03:20;;;;;;;10.02;6.15;;;;;;;19.74;76.73;100198.38;4827563;29;20583;-62
2021/08/06 01:05:58;;;;;;;13.30;5.75;;;;;;;19.87;76.21;100194.72;4834349;29;20078;-61
2021/08/06 01:08:36;;;;;;;9.73;5.43;;;;;;;19.88;76.35;100197.19;4828088;29;20186;-62
2021/08/06 01:11:04;;;;;;;11.13;6.57;;;;;;;19.79;76.76;100195.03;4842971;29;20161;-60
2021/08/06 01:13:36;;;;;;;10.95;5.63;;;;;;;19.69;77.09;100180.38;4825667;29;20090;-62
2021/08/06 01:16:08;;;;;;;9.25;6.13;;;;;;;19.68;77.65;100184.09;4834798;29;20145;-62
2021/08/06 01:18:36;;;;;;;9.60;6.40;;;;;;;19.68;76.88;100188.56;4834259;29;20440;-62
2021/08/06 01:21:09;;;;;;;9.43;6.07;;;;;;;19.78;77.06;100190.75;4826624;29;20057;-62
2021/08/06 01:23:39;;;;;;;11.30;6.03;;;;;;;19.67;77.27;100186.97;4830304;29;20097;-62
2021/08/06 01:26:10;;;;;;;14.02;5.97;;;;;;;19.71;77.70;100180.16;4824277;29;20161;-62
2021/08/06 01:28:40;;;;;;;11.57;5.75;;;;;;;19.67;77.44;100185.09;4834093;29;20468;-62
2021/08/06 01:31:08;;;;;;;10.65;6.10;;;;;;;19.66;77.54;100182.66;4827357;29;20515;-62
2021/08/06 01:33:35;;;;;;;11.50;6.35;;;;;;;19.66;78.21;100185.31;4833966;29;20871;-62
2021/08/06 01:36:02;;;;;;;15.52;6.28;;;;;;;19.79;77.77;100184.41;4826255;29;20098;-62
2021/08/06 01:38:29;;;;;;;14.13;5.85;;;;;;;19.66;77.81;100188.81;4826507;29;20133;-62
2021/08/06 01:41:14;;;;;;;11.00;5.90;;;;;;;19.52;78.90;100169.53;4827132;29;20537;-62
2021/08/06 01:43:50;;;;;;;10.98;5.80;;;;;;;19.47;78.85;100179.19;4833767;29;20137;-62
2021/08/06 01:46:23;;;;;;;14.00;6.30;;;;;;;19.49;78.77;100169.16;4831663;29;20145;-61
2021/08/06 01:48:56;;;;;;;13.90;6.28;;;;;;;19.40;78.84;100165.16;4842753;29;20061;-62
2021/08/06 01:51:23;;;;;;;10.40;5.45;;;;;;;19.55;77.60;100162.94;4850711;29;20153;-62
2021/08/06 01:53:53;;;;;;;11.38;5.50;;;;;;;19.55;77.62;100166.41;4830589;29;20145;-61
2021/08/06 01:56:21;;;;;;;9.45;5.18;;;;;;;19.38;79.33;100151.25;4828054;29;20149;-62
2021/08/06 01:58:54;;;;;;;8.85;5.10;;;;;;;19.36;78.83;100160.25;4827925;29;20089;-62
2021/08/06 02:01:22;;;;;;;10.52;5.15;;;;;;;19.40;79.07;100157.97;4829233;29;20072;-62
2021/08/06 02:03:48;;;;;;;;;;;;;;;19.35;79.60;100149.84;4823812;29;20053;-62
2021/08/06 02:06:17;;;;;;;9.82;5.60;;;;;;;19.40;79.89;100150.00;4833525;29;19929;-61
2021/08/06 02:08:45;;;;;;;9.73;5.07;;;;;;;19.43;79.87;100151.41;4826795;29;20114;-62
2021/08/06 02:11:11;;;;;;;11.20;6.68;;;;;;;19.45;80.66;100147.50;4848877;29;20135;-60
2021/08/06 02:13:39;;;;;;;17.77;6.45;;;;;;;19.39;80.39;100150.25;4833140;29;20146;-62
2021/08/06 02:16:06;;;;;;;10.48;6.28;;;;;;;19.41;81.19;100143.66;4820064;29;20133;-61
2021/08/06 02:18:35;;;;;;;12.70;7.10;;;;;;;19.34;81.97;100148.22;4836708;29;20558;-62
2021/08/06 02:21:06;;;;;;;11.40;6.22;;;;;;;19.29;81.33;100148.09;4827659;29;20623;-62
2021/08/06 02:23:35;;;;;;;10.88;5.90;;;;;;;19.20;81.82;100136.91;4851701;29;20680;-62
2021/08/06 02:26:05;;;;;;;13.57;6.50;;;;;;;19.20;81.29;100141.41;4840791;29;20149;-62
2021/08/06 02:28:34;;;;;;;13.73;6.80;;;;;;;19.21;81.29;100135.06;4829323;29;20053;-62
2021/08/06 02:31:01;;;;;;;11.65;6.10;;;;;;;19.35;80.37;100131.25;4822235;29;20608;-62
2021/08/06 02:33:28;;;;;;;11.65;6.65;;;;;;;19.34;81.01;100125.09;4832867;29;20097;-62
2021/08/06 02:35:56;;;;;;;13.20;6.15;;;;;;;19.33;81.54;100122.69;4848205;29;20057;-62
2021/08/06 02:38:23;;;;;;;12.02;5.80;;;;;;;19.35;81.07;100126.72;4843356;29;20141;-62
2021/08/06 02:40:51;;;;;;;12.63;6.70;;;;;;;19.38;81.27;100122.81;4833003;29;20097;-62
2021/08/06 02:43:18;;;;;;;15.63;6.73;;;;;;;19.35;79.96;100117.94;4820110;29;20902;-62
2021/08/06 02:45:48;;;;;;;10.63;6.82;;;;;;;19.38;81.02;100111.38;4832324;29;20636;-62
2021/08/06 02:48:16;;;;;;;13.15;6.22;;;;;;;19.43;79.84;100114.19;4831839;29;20049;-62
2021/08/06 02:50:43;;;;;;;11.65;6.43;;;;;;;19.39;80.81;100107.69;4849499;29;20228;-62
2021/08/06 02:53:10;;;;;;;10.95;6.25;;;;;;;19.40;80.05;100112.75;4827059;29;20059;-62
2021/08/06 02:55:37;;;;;;;12.48;7.18;;;;;;;19.47;80.35;100107.38;4817838;29;20148;-62
2021/08/06 02:58:03;;;;;;;9.68;5.15;;;;;;;19.44;79.27;100107.81;4829401;29;20438;-62
2021/08/06 03:00:30;;;;;;;12.57;6.07;;;;;;;19.37;79.90;100113.22;4826469;29;20096;-62
2021/08/06 03:02:57;;;;;;;16.35;6.78;;;;;;;19.30;79.73;100107.16;4832554;29;20071;-60
2021/08/06 03:05:23;;;;;;;9.40;6.10;;;;;;;19.21;80.75;100111.97;4826477;29;20359;-62
2021/08/06 03:07:51;;;;;;;11.00;6.43;;;;;;;19.17;80.52;100103.59;4831833;29;20657;-62
2021/08/06 03:10:19;;;;;;;10.95;5.65;;;;;;;19.21;80.08;100105.81;4822045;29;20140;-62
2021/08/06 03:12:47;;;;;;;10.73;6.38;;;;;;;19.26;79.94;100101.47;4829596;29;20089;-62
2021/08/06 03:15:15;;;;;;;9.23;5.45;;;;;;;19.13;80.22;100101.59;4827001;29;20313;-62
2021/08/06 03:17:42;;;;;;;10.90;6.28;;;;;;;19.19;80.19;100102.56;4832308;29;20566;-62
2021/08/06 03:20:15;;;;;;;9.50;5.55;;;;;;;19.48;78.97;100103.69;4832602;29;20054;-62
2021/08/06 03:22:42;;;;;;;9.23;4.88;;;;;;;19.30;79.34;100092.00;4820255;29;20086;-62
2021/08/06 03:25:10;;;;;;;13.50;6.03;;;;;;;19.42;79.12;100096.59;4828108;29;20148;-62
2021/08/06 03:27:36;;;;;;;11.80;6.07;;;;;;;19.59;77.57;100094.16;4806127;29;20174;-62
2021/08/06 03:30:08;;;;;;;10.23;5.63;;;;;;;19.32;79.20;100083.81;4814517;29;20511;-62
2021/08/06 03:32:35;;;;;;;11.02;6.43;;;;;;;19.24;80.48;100087.56;4807630;29;20236;-62
2021/08/06 03:35:02;;;;;;;11.73;6.32;;;;;;;19.52;78.63;100089.72;4815135;29;20150;-62
2021/08/06 03:37:29;;;;;;;11.13;7.00;;;;;;;19.29;79.32;100092.25;4819913;29;20054;-62
2021/08/06 03:39:55;;;;;;;12.18;7.00;;;;;;;19.21;80.80;100081.88;4829127;29;20148;-61
2021/08/06 03:42:22;;;;;;;12.80;6.50;;;;;;;19.21;80.68;100081.88;4831508;29;20089;-61
2021/08/06 03:44:48;;;;;;;12.05;6.00;;;;;;;19.35;80.43;100083.38;4826171;29;20062;-61
2021/08/06 03:47:15;;;;;;;12.05;7.07;;;;;;;19.19;80.83;100086.59;4832137;29;20137;-61
2021/08/06 03:49:43;;;;;;;14.82;7.18;;;;;;;19.25;81.07;100088.38;4823230;29;20066;-62
2021/08/06 03:52:09;;;;;;;15.13;6.78;;;;;;;19.48;78.98;100087.72;4827265;29;20722;-62
2021/08/06 03:54:36;;;;;;;14.48;6.75;;;;;;;19.39;79.01;100094.41;4825060;29;20506;-62
2021/08/06 03:57:03;;;;;;;12.73;6.22;;;;;;;19.28;79.98;100096.72;4847720;29;20085;-63
2021/08/06 03:59:30;;;;;;;12.35;6.22;;;;;;;19.08;80.79;100090.81;4846478;29;20577;-62
2021/08/06 04:01:56;;;;;;;10.40;6.45;;;;;;;19.08;81.71;100098.81;4838716;29;20067;-62
2021/08/06 04:04:23;;;;;;;12.95;6.80;;;;;;;19.07;81.93;100100.66;4831854;29;20066;-62
2021/08/06 04:06:49;;;;;;;12.88;6.22;;;;;;;18.98;82.94;100106.47;4827955;29;20104;-62
2021/08/06 04:09:16;;;;;;;12.88;6.38;;;;;;;19.24;83.15;100108.03;4835942;29;20605;-62
2021/08/06 04:11:43;;;;;;;13.65;6.13;;;;;;;19.21;84.71;100105.81;4828120;29;20062;-60
2021/08/06 04:14:10;;;;;;;11.38;5.28;;;;;;;19.45;82.60;100110.25;4835769;29;20114;-61
2021/08/06 04:16:36;;;;;;;9.68;5.25;;;;;;;19.17;86.72;100103.59;4827852;29;20494;-61
2021/08/06 04:19:03;;;;;;;13.98;6.00;;;;;;;18.89;88.87;100100.59;4830589;29;20050;-61
2021/08/06 04:21:29;;;;;;;12.48;5.35;;;;;;;19.32;85.33;100103.22;4826930;29;20058;-61
2021/08/06 04:23:56;;;;;;;9.50;4.95;;;;;;;19.35;85.29;100100.16;4834810;29;20064;-61
2021/08/06 04:26:22;;;;;;;10.77;5.10;;;;;;;18.87;88.55;100100.81;4844517;29;20085;-61
2021/08/06 04:28:49;;;;;;;11.68;5.63;;;;;;;18.67;90.66;100097.50;4846035;29;20672;-60
2021/08/06 04:31:15;;;;;;;12.68;5.38;;;;;;;18.53;91.43;100099.47;4843940;29;20100;-61
2021/08/06 04:33:42;;;;;;;10.82;5.28;;;;;;;18.68;92.07;100099.94;4828860;29;20597;-61
2021/08/06 04:36:08;;;;;;;11.98;5.40;;;;;;;18.57;91.19;100100.66;4835626;29;20144;-62
2021/08/06 04:38:35;;;;;;;14.10;5.28;;;;;;;18.53;91.02;100102.13;4828468;29;20093;-61
2021/08/06 04:41:01;;;;;;;9.95;5.68;;;;;;;18.53;92.38;100097.59;4835028;29;20108;-61
2021/08/06 04:43:28;;;;;;;11.13;5.05;;;;;;;18.58;91.89;100089.81;4828876;29;20710;-61
2021/08/06 04:45:54;;;;;;;13.80;5.43;;;;;;;18.80;89.14;100091.28;4833497;29;20946;-61
2021/08/06 04:48:22;;;;;;;14.85;5.53;;;;;;;18.96;89.24;100088.88;4853034;29;20053;-61
2021/08/06 04:50:49;;;;;;;11.02;5.50;;;;;;;18.70;91.12;100089.91;4846835;29;20145;-60
2021/08/06 04:53:15;;;;;;;10.60;5.20;;;;;;;18.61;91.20;100090.41;4845152;29;20085;-61
2021/08/06 04:55:42;;;;;;;12.93;5.93;;;;;;;19.08;89.47;100085.50;4825028;29;20062;-61
2021/08/06 04:58:08;;;;;;;11.82;5.70;;;;;;;19.25;87.13;100089.22;4828621;29;20657;-60
2021/08/06 05:00:35;;;;;;;13.88;5.03;;;;;;;19.52;86.93;100088.91;4827290;29;20054;-61
2021/08/06 05:03:01;;;;;;;11.15;5.10;;;;;;;19.33;86.57;100086.25;4834120;29;20100;-61
2021/08/06 05:05:28;;;;;;;13.27;6.20;;;;;;;19.29;86.17;100089.59;4834094;29;20772;-61
2021/08/06 05:07:54;;;;;;;9.90;5.13;;;;;;;19.46;87.28;100095.91;4827263;29;20136;-61
2021/08/06 05:10:24;;;;;;;13.88;5.88;;;;;;;19.35;87.07;100096.69;4830231;29;20062;-62
2021/08/06 05:12:51;;;;;;;10.30;5.47;;;;;;;19.06;89.11;100084.91;4824357;29;20148;-61
2021/08/06 05:15:18;;;;;;;10.50;5.40;;;;;;;18.93;88.46;100088.50;4835310;29;20502;-61
2021/08/06 05:17:44;;;;;;;13.77;5.57;;;;;;;19.09;89.78;100082.63;4827511;29;20066;-61
2021/08/06 05:20:12;;;;;;;11.55;5.65;;;;;;;19.05;88.67;100088.59;4831759;29;20196;-59
2021/08/06 05:22:38;;;;;;;15.68;6.40;;;;;;;19.20;86.67;100085.59;4827137;29;20157;-60
2021/08/06 05:25:05;;;;;;;14.07;6.82;;;;;;;19.44;87.39;100094.53;4827647;29;20530;-61
2021/08/06 05:27:32;;;;;;;12.60;5.45;;;;;;;19.27;87.93;100092.47;4850445;29;20164;-62
2021/08/06 05:29:58;;;;;;;12.10;5.75;;;;;;;19.44;86.50;100086.53;4846967;29;20140;-62
2021/08/06 05:32:25;;;;;;;13.38;5.88;;;;;;;19.18;87.97;100085.81;4823276;29;20105;-62
2021/08/06 05:34:52;;;;;;;13.55;6.30;;;;;;;19.30;87.05;100089.34;4809578;29;20223;-62
2021/08/06 05:37:18;;;;;;;13.65;5.97;;;;;;;19.43;86.31;100090.25;4812885;29;20149;-62
2021/08/06 05:39:45;;;;;;;11.60;6.05;;;;;;;19.69;86.18;100092.56;4817197;29;20058;-61
2021/08/06 05:42:11;;;;;;;13.07;5.72;;;;;;;19.31;86.39;100084.88;4832786;29;20140;-61
2021/08/06 05:44:37;;;;;;;13.00;5.97;;;;;;;19.14;88.97;100084.63;4826536;29;20132;-61
2021/08/06 05:47:04;;;;;;;13.88;6.45;;;;;;;19.41;87.90;100087.00;4833710;29;20161;-61
2021/08/06 05:49:30;;;;;;;15.75;6.70;;;;;;;19.71;85.69;100097.69;4833516;29;20140;-62
2021/08/06 05:51:57;;;;;;;13.02;6.20;;;;;;;19.74;84.78;100099.94;4821508;29;20811;-61
2021/08/06 05:54:23;;;;;;;16.60;7.65;;;;;;;19.76;85.64;100097.84;4819265;29;20168;-59
2021/08/06 05:56:50;;;;;;;17.10;7.50;;;;;;;19.81;84.74;100091.84;4825947;29;20603;-61
2021/08/06 05:59:16;;;;;;;12.02;6.90;;;;;;;19.77;85.68;100088.81;4833823;29;20145;-61
2021/08/06 06:01:42;;;;;;;15.75;7.10;;;;;;;19.59;86.13;100089.63;4826143;29;20140;-62
2021/08/06 06:04:09;;;;;;;13.73;7.25;;;;;;;19.60;87.17;100099.25;4830311;29;20061;-62
2021/08/06 06:06:36;;;;;;;16.90;7.43;;;;;;;19.42;89.19;100102.72;4822504;29;20137;-61
2021/08/06 06:09:02;;;;;;;13.38;6.47;;;;;;;19.73;86.88;100095.63;4847804;29;20693;-61
2021/08/06 06:11:29;;;;;;;14.02;7.47;;;;;;;19.94;86.08;100099.66;4847525;29;20503;-61
2021/08/06 06:13:59;;;;;;;19.50;8.05;;;;;;;19.77;85.31;100103.97;4826160;29;20144;-62
2021/08/06 06:16:25;;;;;;;14.15;7.50;;;;;;;19.14;89.21;100104.03;4832794;29;20630;-62
2021/08/06 06:18:52;;;;;;;16.08;7.82;;;;;;;19.61;87.48;100103.53;4824362;29;20681;-62
2021/08/06 06:21:18;;;;;;;13.85;7.38;;;;;;;19.29;89.16;100105.53;4827332;29;20434;-62
2021/08/06 06:23:45;;;;;;;11.35;7.13;;;;;;;19.11;90.94;100109.81;4827052;29;20160;-61
2021/08/06 06:26:11;;;;;;;15.95;7.57;;;;;;;19.30;90.61;100117.78;4840896;29;20141;-62
2021/08/06 06:28:38;;;;;;;14.10;6.78;;;;;;;19.54;89.76;100110.75;4847583;29;20057;-61
2021/08/06 06:31:04;;;;;;;16.50;7.30;;;;;;;19.55;89.23;100110.53;4844806;29;20144;-61
2021/08/06 06:33:32;;;;;;;14.32;6.68;;;;;;;19.81;88.75;100110.47;4826161;29;20081;-61
2021/08/06 06:35:59;;;;;;;12.60;6.72;;;;;;;19.80;87.85;100104.34;4828106;29;20728;-60
2021/08/06 06:38:25;;;;;;;13.20;6.63;;;;;;;19.88;87.22;100104.03;4833129;29;20141;-61
2021/08/06 06:40:51;;;;;;;11.40;6.50;;;;;;;19.13;91.90;100113.06;4826907;29;20145;-61
2021/08/06 06:43:18;;;;;;;10.50;6.20;;;;;;;19.65;89.40;100115.34;4833227;29;20168;-61
2021/08/06 06:45:44;;;;;;;12.25;5.70;;;;;;;19.81;88.08;100119.25;4822867;29;20165;-61
2021/08/06 06:48:11;;;;;;;11.23;5.65;;;;;;;19.70;89.14;100123.47;4829081;29;20211;-61
2021/08/06 06:50:38;;;;;;;11.68;5.75;;;;;;;19.74;88.82;100130.00;4831014;29;20148;-61
2021/08/06 06:53:05;;;;;;;12.18;6.15;;;;;;;19.51;89.63;100125.31;4827632;29;20144;-62
2021/08/06 06:55:32;;;;;;;10.32;5.75;;;;;;;19.33;91.55;100131.47;4821181;29;20096;-61
2021/08/06 06:57:58;;;;;;;11.88;6.30;;;;;;;19.65;88.89;100117.19;4826152;29;20141;-62
2021/08/06 07:00:30;;;;;;;13.82;5.53;;;;;;;19.56;91.20;100125.47;4826403;29;20554;-61
2021/08/06 07:02:59;;;;;;;11.68;6.97;;;;;;;19.74;88.45;100131.84;4822700;29;20118;-62
2021/08/06 07:05:26;;;;;;;9.45;6.13;;;;;;;19.89;88.32;100137.56;4832452;29;20057;-61
2021/08/06 07:07:52;;;;;;;11.38;6.55;;;;;;;19.70;88.24;100133.31;4825779;29;20058;-60
2021/08/06 07:10:19;;;;;;;13.52;6.43;;;;;;;19.24;93.36;100132.78;4832047;29;20082;-61
2021/08/06 07:12:47;;;;;;;16.75;6.85;;;;;;;19.95;89.36;100143.84;4823630;29;20064;-61
2021/08/06 07:15:14;;;;;;;11.20;6.00;;;;;;;20.04;85.63;100134.53;4827413;29;20062;-61
2021/08/06 07:17:42;;;;;;;10.13;6.53;;;;;;;20.09;86.20;100140.00;4832206;29;20498;-61
2021/08/06 07:20:11;;;;;;;13.65;6.53;;;;;;;20.29;84.16;100137.06;4824902;29;20504;-61
2021/08/06 07:22:38;;;;;;;17.13;7.43;;;;;;;20.27;83.44;100141.78;4831157;29;20054;-62
2021/08/06 07:25:07;;;;;;;12.10;7.82;;;;;;;19.95;84.96;100143.84;4827519;29;20822;-61
2021/08/06 07:27:33;;;;;;;14.50;7.68;;;;;;;19.64;88.89;100147.47;4840400;29;20362;-62
2021/08/06 07:30:00;;;;;;;11.10;7.60;;;;;;;19.70;87.93;100136.78;4823731;29;20057;-61
2021/08/06 07:32:27;;;;;;;10.88;7.43;;;;;;;19.80;88.45;100146.09;4832134;29;20157;-61
2021/08/06 07:34:55;;;;;;;;;;;;;;;19.52;87.64;100155.38;4832361;29;20993;-62
2021/08/06 07:37:21;;;;;;;10.32;6.85;;;;;;;19.52;88.21;100158.03;4832365;29;20015;-61
2021/08/06 07:39:49;;;;;;;12.50;7.22;;;;;;;19.74;85.91;100158.47;4828503;29;20766;-61
2021/08/06 07:42:16;;;;;;;9.07;6.53;;;;;;;20.07;83.54;100159.88;4822723;29;20152;-61
2021/08/06 07:44:43;;;;;;;12.73;7.32;;;;;;;20.23;84.18;100163.75;4835342;29;20140;-62
2021/08/06 07:47:09;;;;;;;11.35;7.32;;;;;;;19.45;86.20;100158.13;4829697;29;20066;-62
2021/08/06 07:49:36;;;;;;;13.18;7.32;;;;;;;19.87;84.00;100170.78;4835751;29;20172;-61
2021/08/06 07:52:02;;;;;;;12.20;6.80;;;;;;;20.20;82.82;100165.03;4830365;29;20058;-61
2021/08/06 07:54:29;;;;;;;11.57;7.07;;;;;;;19.74;85.88;100172.56;4818200;29;20065;-61
2021/08/06 07:56:55;;;;;;;13.30;7.18;;;;;;;20.05;84.57;100165.44;4828422;29;20202;-61
2021/08/06 07:59:22;;;;;;;13.07;8.23;;;;;;;20.00;84.63;100169.81;4831906;29;20066;-61
2021/08/06 08:01:48;;;;;;;14.45;9.13;;;;;;;19.74;86.73;100166.44;4834054;29;20080;-61
2021/08/06 08:04:15;;;;;;;15.32;8.73;;;;;;;19.67;87.25;100176.31;4830116;29;20062;-61
2021/08/06 08:06:41;;;;;;;16.48;8.10;;;;;;;20.19;82.16;100173.25;4835870;29;20086;-61
2021/08/06 08:09:08;;;;;;;18.42;8.10;;;;;;;19.77;83.90;100181.94;4823071;29;20136;-60
2021/08/06 08:11:34;;;;;;;13.38;8.88;;;;;;;19.55;84.38;100173.59;4831595;29;20089;-61
2021/08/06 08:14:01;;;;;;;12.43;7.72;;;;;;;19.61;85.99;100166.56;4829672;29;20107;-61
2021/08/06 08:16:28;;;;;;;11.23;7.20;;;;;;;20.19;82.52;100166.09;4835254;29;20070;-60
2021/08/06 08:18:54;;;;;;;18.20;8.25;;;;;;;20.00;82.56;100169.81;4835924;29;20583;-60
2021/08/06 08:21:23;;;;;;;15.15;6.85;;;;;;;20.02;82.88;100170.41;4822467;29;20062;-60
2021/08/06 08:23:50;;;;;;;12.85;7.22;;;;;;;20.02;82.62;100179.19;4831313;29;20088;-61
2021/08/06 08:26:17;;;;;;;11.20;7.63;;;;;;;19.88;82.98;100173.22;4836102;29;20148;-61
2021/08/06 08:28:43;;;;;;;11.88;7.88;;;;;;;20.45;77.08;100180.06;4853771;29;20061;-62
2021/08/06 08:31:10;;;;;;;14.38;7.45;;;;;;;20.96;73.61;100186.69;4846361;29;20122;-62
2021/08/06 08:33:36;;;;;;;9.50;7.07;;;;;;;20.54;74.88;100182.19;4853418;29;20264;-61
2021/08/06 08:36:04;;;;;;;12.75;7.38;;;;;;;20.77;73.71;100183.28;4835718;29;20152;-61
2021/08/06 08:38:32;;;;;;;17.30;7.90;;;;;;;21.16;72.76;100188.19;4834370;29;20085;-62
2021/08/06 08:40:59;;;;;;;12.35;7.80;;;;;;;21.02;73.69;100190.28;4834425;29;20172;-62
2021/08/06 08:43:26;;;;;;;15.35;7.65;;;;;;;21.23;72.11;100195.06;4828871;29;20104;-62
2021/08/06 08:45:55;;;;;;;14.25;7.88;;;;;;;21.39;71.75;100179.38;4834788;29;20067;-62
2021/08/06 08:48:22;;;;;;;13.70;7.15;;;;;;;20.50;74.91;100191.66;4827056;29;20081;-61
2021/08/06 08:50:52;;;;;;;16.23;8.35;;;;;;;19.98;76.96;100194.00;4851327;29;20165;-62
2021/08/06 08:53:18;;;;;;;19.85;8.68;;;;;;;20.05;79.26;100197.41;4840245;29;20172;-62
2021/08/06 08:55:45;;;;;;;16.73;8.05;;;;;;;20.13;78.39;100188.25;4824596;29;20392;-62
2021/08/06 08:58:12;;;;;;;17.38;8.00;;;;;;;20.22;78.74;100192.25;4829050;29;20129;-61
2021/08/06 09:00:40;;;;;;;17.17;7.30;;;;;;;20.32;78.39;100192.50;4829650;29;20144;-62
2021/08/06 09:03:06;;;;;;;19.02;6.88;;;;;;;21.41;74.01;100191.44;4830332;29;20057;-62
2021/08/06 09:05:33;;;;;;;18.33;6.78;;;;;;;22.16;69.91;100187.13;4827607;29;20140;-62
2021/08/06 09:08:16;;;;;;;12.95;7.53;;;;;;;21.81;69.70;100188.03;4835154;29;20064;-61
2021/08/06 09:10:43;;;;;;;13.30;7.00;;;;;;;21.38;72.33;100186.56;4828186;29;20140;-64
2021/08/06 09:13:09;;;;;;;15.45;6.97;;;;;;;21.41;74.15;100183.44;4834670;29;20160;-62
2021/08/06 09:15:46;;;;;;;21.30;7.88;;;;;;;21.71;71.51;100177.16;4820228;29;20146;-64
2021/08/06 09:18:31;;;;;;;12.40;6.65;;;;;;;21.91;69.49;100172.25;4834362;29;20441;-62
2021/08/06 09:21:28;;;;;;;12.77;7.15;;;;;;;22.41;66.77;100173.44;4825796;29;20485;-60
2021/08/06 09:23:59;;;;;;;15.20;6.15;;;;;;;22.96;64.40;100179.16;4833789;29;20060;-63
2021/08/06 09:26:25;;;;;;;12.73;5.88;;;;;;;22.19;65.38;100181.31;4837212;29;20148;-62
2021/08/06 09:29:05;;;;;;;13.85;5.72;;;;;;;22.55;64.59;100178.50;4830196;29;20225;-62
2021/08/06 09:31:35;;;;;;;13.13;5.97;;;;;;;22.31;64.42;100174.06;4823166;29;20058;-62
2021/08/06 09:34:18;;;;;;;10.75;5.30;;;;;;;23.30;62.42;100164.69;4831861;29;20084;-63
2021/08/06 09:36:54;;;;;;;11.23;5.13;;;;;;;22.45;64.71;100177.25;4828325;29;20054;-61
2021/08/06 09:39:23;;;;;;;12.75;5.18;;;;;;;22.26;65.24;100181.19;4833924;29;20612;-62
2021/08/06 09:42:14;;;;;;;13.23;5.50;;;;;;;23.30;63.08;100172.72;4822909;29;20414;-62
2021/08/06 09:44:41;;;;;;;10.50;5.00;;;;;;;23.00;64.71;100181.09;4832245;29;20062;-63
2021/08/06 09:47:20;;;;;;;14.73;5.35;;;;;;;23.12;64.00;100183.69;4834218;29;20132;-63
2021/08/06 09:49:50;;;;;;;10.48;4.50;;;;;;;23.01;62.53;100179.22;4843880;29;20602;-63
2021/08/06 09:52:25;;;;;;;11.45;4.20;;;;;;;23.20;61.57;100177.94;4851725;29;20104;-63
2021/08/06 09:55:19;;;;;;;10.93;4.25;;;;;;;23.02;60.64;100189.69;4810469;29;20058;-63
2021/08/06 09:57:46;;;;;;;13.88;4.90;;;;;;;24.04;58.02;100178.75;4830211;29;20449;-63
2021/08/06 10:00:15;;;;;;;13.32;4.32;;;;;;;24.50;56.10;100184.53;4827360;29;20060;-62
2021/08/06 10:02:42;;;;;;;9.25;4.13;;;;;;;24.61;54.61;100185.50;4832566;29;20177;-61
2021/08/06 10:05:16;;;;;;;12.05;4.38;;;;;;;23.93;57.03;100182.38;4827719;29;20092;-63
2021/08/06 10:07:44;;;;;;;10.20;4.53;;;;;;;23.82;58.19;100192.97;4830057;29;20162;-62
2021/08/06 10:10:17;;;;;;;12.98;4.80;;;;;;;23.94;57.21;100182.13;4824258;29;20096;-63
2021/08/06 10:12:45;;;;;;;13.93;4.90;;;;;;;24.27;57.48;100191.84;4831751;29;20161;-62
2021/08/06 10:15:13;;;;;;;11.00;4.70;;;;;;;23.75;56.19;100189.63;4829677;29;20097;-62
2021/08/06 10:17:41;;;;;;;13.90;4.60;;;;;;;22.85;59.37;100195.00;4831547;29;20488;-63
2021/08/06 10:20:10;;;;;;;12.38;4.38;;;;;;;22.75;59.64;100191.38;4833284;29;20161;-63
2021/08/06 10:22:38;;;;;;;15.27;4.88;;;;;;;23.42;57.59;100194.03;4820345;29;20173;-62
2021/08/06 10:25:09;;;;;;;15.47;4.77;;;;;;;22.39;59.31;100196.13;4831993;29;20160;-63
2021/08/06 10:27:37;;;;;;;12.32;4.60;;;;;;;22.28;61.73;100201.25;4827825;29;20551;-64
2021/08/06 10:30:25;;;;;;;15.85;4.68;;;;;;;22.35;62.81;100205.66;4834022;29;20097;-65
2021/08/06 10:33:21;;;;;;;13.07;4.68;;;;;;;22.91;60.32;100190.56;4826143;29;20128;-61
2021/08/06 10:35:52;;;;;;;14.13;4.65;;;;;;;23.24;58.59;100189.75;4828887;29;20510;-63
2021/08/06 10:38:44;;;;;;;15.18;5.22;;;;;;;22.62;61.25;100192.50;4825162;29;20141;-63
2021/08/06 10:41:16;;;;;;;15.38;4.85;;;;;;;22.31;61.97;100190.09;4832393;29;20149;-63
2021/08/06 10:43:50;;;;;;;16.70;4.85;;;;;;;23.18;59.01;100189.94;4826414;29;20534;-62
2021/08/06 10:46:19;;;;;;;14.15;4.97;;;;;;;;;;4832127;29;20766;-63
2021/08/06 10:48:51;;;;;;;12.27;5.13;;;;;;;22.41;62.36;100189.47;4822900;29;20152;-63
2021/08/06 10:51:17;;;;;;;10.60;5.13;;;;;;;22.41;63.44;100192.16;4828605;29;20089;-60
2021/08/06 10:53:59;;;;;;;14.57;4.88;;;;;;;22.28;62.37;100192.44;4832545;29;20054;-61
2021/08/06 10:56:29;;;;;;;12.10;4.65;;;;;;;22.77;59.88;100195.41;4828944;29;20124;-63
2021/08/06 10:59:02;;;;;;;18.10;4.15;;;;;;;22.87;60.38;100187.59;4833105;29;20161;-62
2021/08/06 11:01:29;;;;;;;10.57;3.95;;;;;;;23.16;58.12;100192.03;4822528;29;20140;-63
2021/08/06 11:03:59;;;;;;;12.83;4.70;;;;;;;23.00;60.31;100183.75;4829006;29;20145;-63
2021/08/06 11:06:39;;;;;;;12.57;4.82;;;;;;;22.35;63.96;100184.28;4827008;29;20069;-62
2021/08/06 11:09:07;;;;;;;7.60;4.03;;;;;;;22.84;61.75;100185.38;4836058;29;20165;-62
2021/08/06 11:11:46;;;;;;;11.27;3.90;;;;;;;23.14;60.25;100194.16;4828449;29;20152;-62
2021/08/06 11:14:36;;;;;;;8.18;3.90;;;;;;;22.89;59.43;100190.00;4835855;29;20104;-62
2021/08/06 11:17:03;;;;;;;12.18;4.07;;;;;;;23.02;59.34;100197.72;4825043;29;20891;-62
2021/08/06 11:19:35;;;;;;;12.65;3.92;;;;;;;22.55;60.78;100197.19;4833943;29;20128;-61
2021/08/06 11:22:08;;;;;;;12.25;3.28;;;;;;;22.47;59.46;100185.03;4827508;29;20136;-62
2021/08/06 11:24:40;;;;;;;7.15;2.67;;;;;;;22.53;59.15;100186.75;4835921;29;20508;-63
2021/08/06 11:27:07;;;;;;;7.57;3.50;;;;;;;22.90;57.48;100191.63;4834356;29;20138;-62